»·PEaware :: SKY140 KPRC-KHII

SKY140 :: KPRC-KHII

FLIGHT INFORMATION

Flight Status: Arrived
Operator:
Sky High Charters
More flights by this operator :: More flights under this callsign
Pilot: Peter S. (23284)
Aircraft: SOCATA TBM-900
(TBM9)
More flights by this aircraft type
Origin: KPRC Love
United States
Destination: KHII Lake Havasu City
United States
More flights between these airports :: More routes between these airports
Route: +WNSKI2 MUMTE V12 EED
File this flight plan on PilotEdge
Remarks: SKY-8 LEG 1
Altitude:
(Current/Filed)
10,000ft
Speed:
(Current/Filed)
200kts
Departed: 17-Aug-19 02:58 PM
Arrived: 17-Aug-19 03:39 PM
Distance/Time
Traveled:
96nm/0:41
Distance/Time
To Go:
Arrived

Flight Plot

Page will automatically refresh every two minutes.


Map Options




Map Legend


Flown Route
Filed Route
Departure Airport
Arrival Airport
Navaid (VOR, NDB)
Fix

Horizontal Profiles

Position Reports

Time Latitude Longitude Heading Altitude Ground
Speed
17-Aug-19 14:35 34.653929 -112.422745 130 5044ft 0kts
17-Aug-19 14:36 34.653929 -112.422745 130 5044ft 0kts
17-Aug-19 14:38 34.653929 -112.422745 130 5044ft 0kts
17-Aug-19 14:38 34.653929 -112.422745 130 5044ft 0kts
17-Aug-19 14:39 34.653929 -112.422745 130 5044ft 0kts
17-Aug-19 14:40 34.653929 -112.422745 130 5044ft 0kts
17-Aug-19 14:41 34.653929 -112.422745 130 5044ft 0kts
17-Aug-19 14:42 34.653929 -112.422745 130 5044ft 0kts
17-Aug-19 14:43 34.653929 -112.422745 130 5044ft 0kts
17-Aug-19 14:44 34.653929 -112.422745 130 5044ft 0kts
17-Aug-19 14:45 34.653929 -112.422745 130 5044ft 0kts
17-Aug-19 14:46 34.653929 -112.422745 130 5044ft 0kts
17-Aug-19 14:47 34.653929 -112.422745 130 5044ft 0kts
17-Aug-19 14:48 34.653929 -112.422745 130 5044ft 0kts
17-Aug-19 14:49 34.653929 -112.422744 130 5044ft 0kts
17-Aug-19 14:50 34.653927 -112.422742 130 5044ft 0kts
17-Aug-19 14:51 34.653927 -112.422742 130 5044ft 0kts
17-Aug-19 14:52 34.653927 -112.422742 130 5044ft 0kts
17-Aug-19 14:53 34.654096 -112.422303 42 5044ft 11kts
17-Aug-19 14:54 34.656681 -112.418671 41 5044ft 24kts
17-Aug-19 14:55 34.661165 -112.413936 33 5044ft 7kts
17-Aug-19 14:56 34.661895 -112.413066 128 5044ft 2kts
17-Aug-19 14:57 34.656250 -112.417541 222 5045ft 110kts
17-Aug-19 14:58 34.624264 -112.430722 131 6734ft 167kts
17-Aug-19 14:59 34.640008 -112.384411 76 9283ft 142kts
17-Aug-19 15:00 34.612538 -112.342627 142 10055ft 202kts
17-Aug-19 15:01 34.566693 -112.290248 132 10021ft 223kts
17-Aug-19 15:02 34.517339 -112.270882 226 10042ft 211kts
17-Aug-19 15:03 34.498334 -112.332212 307 10009ft 220kts
17-Aug-19 15:04 34.526112 -112.398450 289 10000ft 219kts
17-Aug-19 15:05 34.547903 -112.469309 288 10013ft 235kts
17-Aug-19 15:06 34.572500 -112.551331 288 9997ft 253kts
17-Aug-19 15:07 34.596415 -112.631440 288 9998ft 249kts
17-Aug-19 15:08 34.620134 -112.711117 287 10000ft 248kts
17-Aug-19 15:09 34.644658 -112.793731 287 10000ft 248kts
17-Aug-19 15:10 34.668444 -112.874053 287 10330ft 241kts
17-Aug-19 15:11 34.692505 -112.955567 287 10330ft 247kts
17-Aug-19 15:12 34.716862 -113.038320 287 10330ft 249kts
17-Aug-19 15:13 34.726711 -113.125190 270 10294ft 247kts
17-Aug-19 15:14 34.729635 -113.210781 269 10251ft 246kts
17-Aug-19 15:15 34.732486 -113.295713 269 10210ft 245kts
17-Aug-19 15:16 34.735308 -113.381304 269 10210ft 244kts
17-Aug-19 15:17 34.737957 -113.463836 269 10209ft 244kts
17-Aug-19 15:18 34.740592 -113.547093 269 10209ft 243kts
17-Aug-19 15:19 34.743136 -113.629888 269 10209ft 244kts
17-Aug-19 15:20 34.745649 -113.713037 269 10211ft 244kts
17-Aug-19 15:21 34.748087 -113.795621 269 10194ft 245kts
17-Aug-19 15:22 34.750527 -113.880276 269 10134ft 246kts
17-Aug-19 15:23 34.753009 -113.968726 269 10073ft 246kts
17-Aug-19 15:24 34.755345 -114.053702 269 9497ft 241kts
17-Aug-19 15:25 34.757657 -114.140297 269 8416ft 245kts
17-Aug-19 15:26 34.759952 -114.228423 269 7258ft 246kts
17-Aug-19 15:27 34.762097 -114.313235 269 7001ft 234kts
17-Aug-19 15:28 34.764092 -114.393845 269 7006ft 218kts
17-Aug-19 15:29 34.766051 -114.470504 269 6726ft 221kts
17-Aug-19 15:30 34.784446 -114.547106 300 5459ft 232kts
17-Aug-19 15:31 34.838300 -114.550561 75 4126ft 239kts
17-Aug-19 15:32 34.800244 -114.499702 149 4009ft 189kts
17-Aug-19 15:33 34.754150 -114.466743 158 3777ft 188kts
17-Aug-19 15:34 34.705189 -114.438055 157 3503ft 177kts
17-Aug-19 15:35 34.661321 -114.412019 158 3501ft 160kts
17-Aug-19 15:36 34.623858 -114.389989 162 2474ft 120kts
17-Aug-19 15:37 34.594951 -114.374624 157 1269ft 98kts
17-Aug-19 15:38 34.574576 -114.360757 140 783ft 23kts
17-Aug-19 15:39 34.569263 -114.358320 331 783ft 19kts
17-Aug-19 15:40 34.569330 -114.361093 50 783ft 0kts
17-Aug-19 15:41 34.569330 -114.361093 51 783ft 0kts
17-Aug-19 15:42 34.569330 -114.361093 50 783ft 0kts
17-Aug-19 15:43 34.569330 -114.361093 50 783ft 0kts
17-Aug-19 15:44 34.569330 -114.361093 50 783ft 0kts

Navigation Log

Ident Type
Flight plan parsing failed, navigation log unavailable